DN4 weather

CLOSED Campbellton Water Aerodrome
Campbellton, New Brunswick, Canada

Public forecast

Using degrees Celsius for public forecast. Weather courtesy of forecast.io.

METAR (pilot weather report)

Closest report is Bathurst Airport, 42.9 nm (79.4 km) ESE. Retrieved 2019/05/21 02:34 UTC (0 seconds ago):

CZBF 210234Z AUTO 00000KT 5SM RA BR OVC006 04/04 A2976 RMK SLP081

TAF (pilot weather forecast)

Forecast is more than 6 hours old.

Closest forecast is Bathurst Airport, 42.9 nm (79.4 km) ESE. Retrieved 2019/05/20 20:00 UTC (6 hours ago):

TAF CZBF 201942Z 2020/2103 10010KT 5SM -DZ BR OVC004 TEMPO 2020/2024 6SM BR OVC006 FM210000 10010KT 2SM -SHRA BR OVC003 TEMPO 2100/2103 6SM BR OVC006 RMK FCST BASED ON AUTO OBS. NXT FCST WILL BE ISSUED AT 210845Z